Main page
METAR-TAF:

METAR-TAF

Airports :

Mangaluru Airport

Mangalore, India

latitude: 12-55N, longitude: 074-53E, elevation: 102 m

Current weather observation

The report was made 10 minutes ago, at 01:30 UTC
Wind 10 kt from the West/Northwest
Temperature 25°C
Humidity 89%
Pressure 1006 hPa
Visibility: 4000 m
Few clouds at a height of 500 ft
Scattered clouds at a height of 1200 ft
Broken clouds at a height of 8000 ft
mist

METAR: VOML 150130Z 30010KT 4000 BR FEW005 SCT012 BKN080 25/23 Q1006 NOSIG

Time: 07:10 (01:40 UTC)

Forecast

The report was made 2 hours and 40 minutes ago, at 23:00 UTC
Forecast valid from 15 at 00 UTC to 16 at 06 UTC
Wind 10 kt from the West
Visibility: 6000 m
Scattered clouds at a height of 600 ft
Scattered clouds at a height of 1200 ft
Broken clouds at a height of 8000 ft

TAF: VOML 142300Z 1500/1606 27010KT 6000 SCT006 SCT012 BKN080 TEM

Weather observations and forecasts of more than 4000 airports (METAR and TAF reports).

The available stations are represented by yellow and red dots on the map.

Hover mouse over dot to see the name of the station.

Then click to see weather observations and forecasts.

To change the map : click on the green buttons with a black cross to zoom in, on the green button with a dash to zoom out, or on the green arrows for adjacent maps.


METAR-TAF: